createdAt,value
2022-10-18T00:00:19.593Z,97057.34
2022-10-18T00:03:06.405Z,97058.04
2022-10-18T00:05:33.765Z,97054.60
2022-10-18T00:08:00.607Z,97054.69
2022-10-18T00:10:27.503Z,97051.45
2022-10-18T00:12:54.214Z,97052.39
2022-10-18T00:15:20.938Z,97050.86
2022-10-18T00:17:47.986Z,97054.29
2022-10-18T00:20:14.813Z,97049.39
2022-10-18T00:22:41.990Z,97048.96
2022-10-18T00:25:09.641Z,97045.39
2022-10-18T00:27:36.831Z,97044.27
2022-10-18T00:30:04.698Z,97041.41
2022-10-18T00:32:36.598Z,97033.04
2022-10-18T00:35:04.437Z,97032.29
2022-10-18T00:37:32.265Z,97033.42
2022-10-18T00:39:58.963Z,97029.48
2022-10-18T00:42:33.467Z,97027.48
2022-10-18T00:45:38.092Z,97025.08
2022-10-18T00:48:05.112Z,97021.92
2022-10-18T00:50:34.104Z,97023.77
2022-10-18T00:53:04.537Z,97021.77
2022-10-18T00:55:33.686Z,97021.71
2022-10-18T00:58:01.500Z,97016.27
2022-10-18T01:00:28.329Z,97016.68
2022-10-18T01:02:55.699Z,97017.43
2022-10-18T01:05:23.541Z,97016.10
2022-10-18T01:08:05.523Z,97016.88
2022-10-18T01:11:03.138Z,97011.21
2022-10-18T01:13:48.205Z,97005.76
2022-10-18T01:16:14.846Z,97002.00
2022-10-18T01:19:06.314Z,97000.95
2022-10-18T01:21:44.481Z,96993.27
2022-10-18T01:24:33.379Z,96996.52
2022-10-18T01:27:45.043Z,96993.50
2022-10-18T01:30:33.793Z,96996.65
2022-10-18T01:33:06.830Z,96997.74
2022-10-18T01:35:39.257Z,96994.84
2022-10-18T01:38:10.897Z,96995.27
2022-10-18T01:40:40.618Z,96990.44
2022-10-18T01:43:09.732Z,96991.52
2022-10-18T01:45:36.774Z,96987.58
2022-10-18T01:48:04.034Z,96983.88
2022-10-18T01:50:33.227Z,96982.83
2022-10-18T01:53:00.723Z,96977.98
2022-10-18T01:55:57.228Z,96979.13
2022-10-18T01:58:40.562Z,96977.55
2022-10-18T02:01:17.411Z,96978.55
2022-10-18T02:03:48.798Z,96976.52
2022-10-18T02:06:31.673Z,96974.34
2022-10-18T02:09:13.416Z,96973.15
2022-10-18T02:11:42.976Z,96973.62
2022-10-18T02:14:13.849Z,96969.52
2022-10-18T02:16:45.729Z,96967.30
2022-10-18T02:19:21.925Z,96968.18
2022-10-18T02:21:51.210Z,96965.77
2022-10-18T02:24:20.751Z,96966.25
2022-10-18T02:26:47.530Z,96963.48
2022-10-18T02:29:14.372Z,96962.52
2022-10-18T02:31:50.311Z,96959.71
2022-10-18T02:34:20.355Z,96961.02
2022-10-18T02:36:53.962Z,96961.37
2022-10-18T02:39:26.937Z,96960.63
2022-10-18T02:41:54.912Z,96960.81
2022-10-18T02:44:21.903Z,96958.59
2022-10-18T02:46:49.057Z,96961.91
2022-10-18T02:49:16.528Z,96961.27
2022-10-18T02:51:43.431Z,96957.34
2022-10-18T02:54:10.263Z,96957.38
2022-10-18T02:56:37.024Z,96953.33
2022-10-18T02:59:06.716Z,96955.85
2022-10-18T03:01:35.628Z,96951.70
2022-10-18T03:04:03.376Z,96957.12
2022-10-18T03:06:30.629Z,96958.68
2022-10-18T03:08:57.282Z,96957.52
2022-10-18T03:11:24.319Z,96954.29
2022-10-18T03:13:51.058Z,96953.55
2022-10-18T03:16:17.902Z,96955.46
2022-10-18T03:18:44.954Z,96955.13
2022-10-18T03:21:11.829Z,96958.20
2022-10-18T03:23:39.610Z,96953.38
2022-10-18T03:26:06.305Z,96957.55
2022-10-18T03:28:33.100Z,96955.91
2022-10-18T03:31:01.751Z,96958.27
2022-10-18T03:33:29.375Z,96957.25
2022-10-18T03:35:56.065Z,96954.38
2022-10-18T03:38:22.985Z,96947.46
2022-10-18T03:40:49.687Z,96947.52
2022-10-18T03:43:16.470Z,96945.70
2022-10-18T03:45:43.519Z,96951.55
2022-10-18T03:48:10.291Z,96948.16
2022-10-18T03:50:37.002Z,96943.66
2022-10-18T03:53:03.954Z,96945.41
2022-10-18T03:55:31.001Z,96948.23
2022-10-18T03:57:57.685Z,96941.08
2022-10-18T04:00:24.588Z,96941.77
2022-10-18T04:02:53.489Z,96938.78
2022-10-18T04:05:23.806Z,96937.08
2022-10-18T04:07:50.770Z,96938.70
2022-10-18T04:10:18.222Z,96938.40
2022-10-18T04:12:44.839Z,96934.48
2022-10-18T04:15:12.003Z,96933.30
2022-10-18T04:17:38.846Z,96930.34
2022-10-18T04:20:06.335Z,96928.52
2022-10-18T04:22:33.049Z,96930.68
2022-10-18T04:24:59.675Z,96933.44
2022-10-18T04:27:26.432Z,96934.59
2022-10-18T04:29:53.172Z,96934.67
2022-10-18T04:32:19.917Z,96936.33
2022-10-18T04:34:46.657Z,96934.65
2022-10-18T04:37:13.601Z,96931.60
2022-10-18T04:39:40.321Z,96929.13
2022-10-18T04:42:06.962Z,96926.80
2022-10-18T04:44:34.035Z,96928.83
2022-10-18T04:47:00.707Z,96925.40
2022-10-18T04:49:27.415Z,96919.09
2022-10-18T04:51:54.101Z,96918.01
2022-10-18T04:54:22.803Z,96916.80
2022-10-18T04:56:51.936Z,96913.23
2022-10-18T04:59:19.061Z,96913.45
2022-10-18T05:01:45.719Z,96914.90
2022-10-18T05:04:12.686Z,96914.62
2022-10-18T05:06:39.628Z,96917.04
2022-10-18T05:09:06.251Z,96912.42
2022-10-18T05:11:33.318Z,96911.63
2022-10-18T05:14:00.054Z,96917.05
2022-10-18T05:16:27.999Z,96914.70
2022-10-18T05:18:55.131Z,96914.04
2022-10-18T05:21:22.132Z,96918.77
2022-10-18T05:23:48.900Z,96917.91
2022-10-18T05:26:15.817Z,96915.95
2022-10-18T05:28:42.454Z,96919.38
2022-10-18T05:31:11.349Z,96918.77
2022-10-18T05:33:38.604Z,96921.68
2022-10-18T05:36:06.166Z,96918.38
2022-10-18T05:38:33.190Z,96918.70
2022-10-18T05:41:05.132Z,96920.42
2022-10-18T05:43:31.923Z,96923.61
2022-10-18T05:45:58.688Z,96923.80
2022-10-18T05:48:26.254Z,96921.35
2022-10-18T05:50:52.966Z,96921.83
2022-10-18T05:53:35.879Z,96921.21
2022-10-18T05:56:05.603Z,96925.58
2022-10-18T05:58:32.961Z,96926.46
2022-10-18T06:01:01.158Z,96925.91
2022-10-18T06:03:30.459Z,96923.93
2022-10-18T06:06:02.915Z,96924.11
2022-10-18T06:08:29.963Z,96920.17
2022-10-18T06:10:56.811Z,96918.64
2022-10-18T06:13:23.969Z,96919.69
2022-10-18T06:15:55.553Z,96921.02
2022-10-18T06:18:25.889Z,96914.48
2022-10-18T06:20:58.404Z,96908.15
2022-10-18T06:23:27.490Z,96907.13
2022-10-18T06:25:58.647Z,96909.60
2022-10-18T06:28:26.323Z,96906.14
2022-10-18T06:30:53.246Z,96905.39
2022-10-18T06:33:19.958Z,96899.91
2022-10-18T06:36:17.592Z,96898.02
2022-10-18T06:38:44.753Z,96899.81
2022-10-18T06:41:11.880Z,96901.22
2022-10-18T06:43:39.135Z,96902.02
2022-10-18T06:46:07.602Z,96905.45
2022-10-18T06:48:35.968Z,96907.50
2022-10-18T06:51:05.004Z,96907.52
2022-10-18T06:53:35.236Z,96907.73
2022-10-18T06:56:12.120Z,96904.22
2022-10-18T06:58:42.229Z,96903.41
2022-10-18T07:01:13.025Z,96902.29
2022-10-18T07:03:39.769Z,96905.33
2022-10-18T07:09:27.141Z,96900.27
2022-10-18T07:11:55.319Z,96901.86
2022-10-18T07:14:26.916Z,96902.71
2022-10-18T07:16:58.834Z,96899.23
2022-10-18T07:19:25.543Z,96894.42
2022-10-18T07:21:52.428Z,96896.04
2022-10-18T07:24:19.059Z,96890.04
2022-10-18T07:26:46.218Z,96887.63
2022-10-18T07:29:12.927Z,96887.23
2022-10-18T07:31:40.392Z,96883.05
2022-10-18T07:34:10.130Z,96880.52
2022-10-18T07:36:37.489Z,96884.27
2022-10-18T07:39:04.946Z,96883.73
2022-10-18T07:41:33.532Z,96885.06
2022-10-18T07:44:01.980Z,96885.85
2022-10-18T07:46:28.800Z,96884.70
2022-10-18T07:48:56.114Z,96878.98
2022-10-18T07:51:23.669Z,96875.58
2022-10-18T07:53:50.551Z,96869.49
2022-10-18T07:56:20.569Z,96870.14
2022-10-18T07:58:53.073Z,96869.45
2022-10-18T08:01:24.658Z,96865.13
2022-10-18T08:03:52.950Z,96864.44
2022-10-18T08:06:21.328Z,96863.55
2022-10-18T08:08:48.401Z,96858.95
2022-10-18T08:11:18.289Z,96858.65
2022-10-18T08:13:45.912Z,96857.66
2022-10-18T08:16:16.184Z,96854.84
2022-10-18T08:18:43.441Z,96856.38
2022-10-18T08:21:12.163Z,96851.84
2022-10-18T08:23:39.175Z,96850.05
2022-10-18T08:26:09.157Z,96850.39
2022-10-18T08:28:37.189Z,96851.02
2022-10-18T08:31:06.987Z,96850.09
2022-10-18T08:33:35.714Z,96847.20
2022-10-18T08:36:05.584Z,96844.91
2022-10-18T08:38:38.344Z,96845.56
2022-10-18T08:41:33.272Z,96844.44
2022-10-18T08:44:11.995Z,96843.70
2022-10-18T08:46:45.246Z,96841.34
2022-10-18T08:49:23.612Z,96845.63
2022-10-18T08:51:51.782Z,96845.59
2022-10-18T08:54:29.476Z,96844.75
2022-10-18T08:57:01.033Z,96834.98
2022-10-18T08:59:38.731Z,96833.36
2022-10-18T09:02:28.514Z,96833.84
2022-10-18T09:05:14.200Z,96836.52
2022-10-18T09:07:51.010Z,96829.41
2022-10-18T09:10:17.860Z,96830.14
2022-10-18T09:13:01.666Z,96824.70
2022-10-18T09:15:41.633Z,96825.63
2022-10-18T09:18:14.503Z,96823.49
2022-10-18T09:20:58.251Z,96819.57
2022-10-18T09:24:05.516Z,96819.92
2022-10-18T09:26:42.418Z,96815.17
2022-10-18T09:29:09.132Z,96812.55
2022-10-18T09:31:55.985Z,96806.74
2022-10-18T09:34:27.577Z,96801.92
2022-10-18T09:36:55.807Z,96804.37
2022-10-18T09:39:29.206Z,96802.26
2022-10-18T09:42:11.618Z,96800.59
2022-10-18T09:44:45.524Z,96797.02
2022-10-18T09:47:18.680Z,96794.23
2022-10-18T09:49:50.478Z,96791.88
2022-10-18T09:52:36.376Z,96791.09
2022-10-18T09:55:14.368Z,96786.39
2022-10-18T09:57:47.461Z,96789.33
2022-10-18T10:00:51.279Z,96785.84
2022-10-18T10:03:18.019Z,96784.14
2022-10-18T10:05:45.483Z,96783.55
2022-10-18T10:08:12.838Z,96778.75
2022-10-18T10:10:45.531Z,96774.63
2022-10-18T10:13:17.077Z,96768.71
2022-10-18T10:15:54.670Z,96762.11
2022-10-18T10:18:22.847Z,96759.43
2022-10-18T10:21:02.697Z,96754.21
2022-10-18T10:23:38.585Z,96754.91
2022-10-18T10:26:34.379Z,96752.02
2022-10-18T10:29:01.342Z,96748.89
2022-10-18T10:31:33.493Z,96749.23
2022-10-18T10:34:19.790Z,96743.88
2022-10-18T10:36:54.524Z,96740.82
2022-10-18T10:39:24.036Z,96732.52
2022-10-18T10:41:57.468Z,96728.52
2022-10-18T10:44:31.340Z,96723.11
2022-10-18T10:46:59.413Z,96718.40
2022-10-18T10:49:47.350Z,96716.95
2022-10-18T10:52:36.874Z,96713.55
2022-10-18T10:55:23.246Z,96707.39
2022-10-18T10:57:55.243Z,96702.73
2022-10-18T11:00:52.117Z,96700.23
2022-10-18T11:03:28.909Z,96702.39
2022-10-18T11:06:00.106Z,96701.80
2022-10-18T11:08:41.001Z,96699.00
2022-10-18T11:11:23.152Z,96695.18
2022-10-18T11:14:13.639Z,96687.05
2022-10-18T11:17:08.219Z,96684.87
2022-10-18T11:20:00.786Z,96680.56
2022-10-18T11:22:35.844Z,96674.91
2022-10-18T11:25:05.027Z,96670.73
2022-10-18T11:28:05.230Z,96671.91
2022-10-18T11:30:41.516Z,96669.80
2022-10-18T11:33:56.468Z,96668.60
2022-10-18T11:36:50.469Z,96668.11
2022-10-18T11:39:58.788Z,96664.09
2022-10-18T11:42:53.077Z,96653.55
2022-10-18T11:45:22.473Z,96645.47
2022-10-18T11:48:01.842Z,96645.80
2022-10-18T11:50:58.041Z,96641.68
2022-10-18T11:53:29.469Z,96638.35
2022-10-18T11:55:56.158Z,96635.36
2022-10-18T11:58:38.066Z,96632.61
2022-10-18T12:01:28.616Z,96629.92
2022-10-18T12:04:18.672Z,96632.06
2022-10-18T12:06:48.317Z,96625.25
2022-10-18T12:09:36.823Z,96623.82
2022-10-18T12:12:06.816Z,96622.25
2022-10-18T12:14:38.446Z,96616.97
2022-10-18T12:17:51.327Z,96619.16
2022-10-18T12:20:30.836Z,96611.73
2022-10-18T12:23:35.371Z,96611.86
2022-10-18T12:26:03.507Z,96604.70
2022-10-18T12:29:26.524Z,96607.23
2022-10-18T12:31:57.463Z,96604.42
2022-10-18T12:34:42.899Z,96598.94
2022-10-18T12:37:31.277Z,96597.07
2022-10-18T12:40:18.763Z,96594.52
2022-10-18T12:42:50.462Z,96592.88
2022-10-18T12:45:34.494Z,96587.68
2022-10-18T12:48:04.428Z,96584.33
2022-10-18T12:50:43.345Z,96583.77
2022-10-18T12:53:09.921Z,96577.91
2022-10-18T12:58:13.412Z,96576.55
2022-10-18T13:00:43.123Z,96570.30
2022-10-18T13:03:10.274Z,96566.97
2022-10-18T13:05:53.783Z,96558.44
2022-10-18T13:08:31.192Z,96559.36
2022-10-18T13:11:01.223Z,96562.34
2022-10-18T13:13:50.502Z,96558.85
2022-10-18T13:16:25.110Z,96553.38
2022-10-18T13:18:56.777Z,96549.54
2022-10-18T13:21:34.283Z,96547.48
2022-10-18T13:24:16.227Z,96545.09
2022-10-18T13:27:17.478Z,96539.75
2022-10-18T13:29:55.931Z,96533.08
2022-10-18T13:32:36.810Z,96527.63
2022-10-18T13:35:24.974Z,96525.23
2022-10-18T13:37:59.495Z,96521.78
2022-10-18T13:40:26.419Z,96520.17
2022-10-18T13:42:53.186Z,96515.61
2022-10-18T13:45:32.609Z,96517.23
2022-10-18T13:48:30.465Z,96511.75
2022-10-18T13:51:11.858Z,96512.38
2022-10-18T13:54:12.430Z,96511.48
2022-10-18T13:57:11.194Z,96509.98
2022-10-18T13:59:59.451Z,96508.02
2022-10-18T14:02:54.552Z,96502.34
2022-10-18T14:05:41.154Z,96498.58
2022-10-18T14:08:19.945Z,96494.70
2022-10-18T14:11:21.791Z,96494.48
2022-10-18T14:13:55.607Z,96493.80
2022-10-18T14:16:41.252Z,96491.64
2022-10-18T14:19:19.760Z,96490.25
2022-10-18T14:22:04.034Z,96489.14
2022-10-18T14:24:31.366Z,96485.49
2022-10-18T14:27:12.443Z,96486.34
2022-10-18T14:29:40.289Z,96485.55
2022-10-18T14:32:10.314Z,96485.17
2022-10-18T14:34:38.408Z,96477.70
2022-10-18T14:37:05.593Z,96478.42
2022-10-18T14:39:32.908Z,96476.45
2022-10-18T14:42:00.571Z,96473.05
2022-10-18T14:44:31.622Z,96474.52
2022-10-18T14:47:19.398Z,96467.29
2022-10-18T14:49:46.504Z,96471.98
2022-10-18T14:52:17.135Z,96471.94
2022-10-18T14:54:44.749Z,96472.60
2022-10-18T14:57:22.854Z,96465.85
2022-10-18T14:59:56.434Z,96463.76
2022-10-18T15:02:29.972Z,96457.69
2022-10-18T15:04:58.083Z,96454.20
2022-10-18T15:07:28.676Z,96447.58
2022-10-18T15:09:58.839Z,96448.13
2022-10-18T15:12:27.690Z,96446.56
2022-10-18T15:14:55.316Z,96441.75
2022-10-18T15:17:28.383Z,96440.67
2022-10-18T15:20:18.094Z,96441.61
2022-10-18T15:22:46.318Z,96438.85
2022-10-18T15:25:29.341Z,96437.54
2022-10-18T15:27:59.443Z,96433.48
2022-10-18T15:30:44.073Z,96430.18
2022-10-18T15:33:23.796Z,96428.31
2022-10-18T15:35:52.898Z,96430.86
2022-10-18T15:38:27.633Z,96431.20
2022-10-18T15:40:54.971Z,96430.51
2022-10-18T15:43:27.593Z,96429.51
2022-10-18T15:46:06.239Z,96428.38
2022-10-18T15:48:35.596Z,96429.89
2022-10-18T15:51:05.408Z,96428.11
2022-10-18T15:53:51.882Z,96427.05
2022-10-18T15:56:35.133Z,96424.10
2022-10-18T15:59:21.645Z,96419.17
2022-10-18T16:01:48.762Z,96421.33
2022-10-18T16:04:26.239Z,96424.26
2022-10-18T16:06:54.970Z,96423.92
2022-10-18T16:09:23.682Z,96426.56
2022-10-18T16:11:55.810Z,96427.50
2022-10-18T16:14:25.504Z,96433.66
2022-10-18T16:17:02.454Z,96430.80
2022-10-18T16:19:29.986Z,96431.38
2022-10-18T16:21:56.561Z,96436.44
2022-10-18T16:24:23.340Z,96435.30
2022-10-18T16:26:51.272Z,96433.05
2022-10-18T16:29:23.858Z,96437.19
2022-10-18T16:31:52.963Z,96434.94
2022-10-18T16:34:19.656Z,96436.95
2022-10-18T16:36:46.185Z,96435.06
2022-10-18T16:39:17.540Z,96438.57
2022-10-18T16:41:45.558Z,96441.65
2022-10-18T16:44:12.563Z,96440.68
2022-10-18T16:46:40.436Z,96443.71
2022-10-18T16:49:07.523Z,96444.70
2022-10-18T16:51:34.216Z,96440.11
2022-10-18T16:54:01.060Z,96442.52
2022-10-18T16:56:30.922Z,96441.19
2022-10-18T16:58:58.852Z,96438.68
2022-10-18T17:01:26.643Z,96440.81
2022-10-18T17:03:54.786Z,96439.38
2022-10-18T17:06:21.428Z,96437.33
2022-10-18T17:08:49.193Z,96437.91
2022-10-18T17:11:17.107Z,96438.66
2022-10-18T17:13:44.316Z,96440.57
2022-10-18T17:16:21.015Z,96437.58
2022-10-18T17:18:47.666Z,96438.08
2022-10-18T17:21:14.373Z,96434.86
2022-10-18T17:23:41.016Z,96433.17
2022-10-18T17:26:27.845Z,96432.33
2022-10-18T17:28:59.528Z,96428.58
2022-10-18T17:31:27.868Z,96425.86
2022-10-18T17:33:54.911Z,96427.38
2022-10-18T17:36:22.165Z,96425.27
2022-10-18T17:38:53.723Z,96421.86
2022-10-18T17:41:21.406Z,96417.33
2022-10-18T17:43:48.747Z,96419.09
2022-10-18T17:46:17.328Z,96416.01
2022-10-18T17:48:44.990Z,96414.59
2022-10-18T17:51:14.769Z,96409.90
2022-10-18T17:53:41.988Z,96408.55
2022-10-18T17:56:10.133Z,96408.90
2022-10-18T17:58:36.976Z,96408.00
2022-10-18T18:01:09.900Z,96408.17
2022-10-18T18:03:37.015Z,96408.88
2022-10-18T18:06:14.278Z,96409.86
2022-10-18T18:08:41.063Z,96409.18
2022-10-18T18:11:07.891Z,96410.31
2022-10-18T18:13:34.736Z,96406.62
2022-10-18T18:16:14.922Z,96403.73
2022-10-18T18:18:42.969Z,96399.16
2022-10-18T18:21:10.017Z,96399.60
2022-10-18T18:23:36.966Z,96401.02
2022-10-18T18:26:04.316Z,96396.66
2022-10-18T18:28:31.211Z,96393.65
2022-10-18T18:30:58.113Z,96394.09
2022-10-18T18:33:24.957Z,96390.61
2022-10-18T18:35:56.822Z,96391.35
2022-10-18T18:38:24.377Z,96384.31
2022-10-18T18:41:06.049Z,96384.86
2022-10-18T18:43:33.938Z,96382.55
2022-10-18T18:46:01.405Z,96384.83
2022-10-18T18:48:28.388Z,96388.80
2022-10-18T18:50:55.188Z,96383.50
2022-10-18T18:53:25.996Z,96383.62
2022-10-18T18:56:05.280Z,96379.02
2022-10-18T18:58:34.384Z,96378.12
2022-10-18T19:01:18.407Z,96378.09
2022-10-18T19:03:48.222Z,96380.30
2022-10-18T19:06:27.251Z,96379.71
2022-10-18T19:09:00.731Z,96379.71
2022-10-18T19:11:31.918Z,96379.02
2022-10-18T19:14:00.279Z,96379.04
2022-10-18T19:16:35.315Z,96378.80
2022-10-18T19:19:19.365Z,96380.66
2022-10-18T19:21:52.863Z,96379.27
2022-10-18T19:24:21.653Z,96373.80
2022-10-18T19:26:51.778Z,96371.51
2022-10-18T19:29:22.818Z,96374.24
2022-10-18T19:31:51.711Z,96372.81
2022-10-18T19:34:20.397Z,96369.73
2022-10-18T19:36:48.573Z,96365.33
2022-10-18T19:39:19.537Z,96360.48
2022-10-18T19:41:48.815Z,96352.99
2022-10-18T19:44:17.339Z,96351.56
2022-10-18T19:46:44.875Z,96351.42
2022-10-18T19:49:12.012Z,96352.83
2022-10-18T19:51:39.199Z,96346.59
2022-10-18T19:54:06.727Z,96352.15
2022-10-18T19:56:33.775Z,96349.86
2022-10-18T19:59:00.826Z,96346.83
2022-10-18T20:01:29.255Z,96351.39
2022-10-18T20:03:56.685Z,96353.25
2022-10-18T20:06:24.028Z,96354.81
2022-10-18T20:08:51.870Z,96355.20
2022-10-18T20:11:21.728Z,96355.73
2022-10-18T20:13:48.494Z,96351.80
2022-10-18T20:16:17.162Z,96355.83
2022-10-18T20:18:44.389Z,96353.80
2022-10-18T20:21:13.381Z,96348.59
2022-10-18T20:23:41.988Z,96346.09
2022-10-18T20:26:17.953Z,96343.95
2022-10-18T20:28:56.621Z,96344.99
2022-10-18T20:31:33.113Z,96343.87
2022-10-18T20:34:03.893Z,96339.69
2022-10-18T20:36:32.453Z,96342.55
2022-10-18T20:38:59.906Z,96338.28
2022-10-18T20:41:33.439Z,96339.49
2022-10-18T20:44:02.222Z,96334.70
2022-10-18T20:46:31.742Z,96331.74
2022-10-18T20:48:58.539Z,96329.23
2022-10-18T20:51:25.602Z,96327.17
2022-10-18T20:53:52.972Z,96317.54
2022-10-18T20:56:22.235Z,96313.14
2022-10-18T20:58:50.752Z,96312.41
2022-10-18T21:01:21.700Z,96313.46
2022-10-18T21:03:50.490Z,96305.25
2022-10-18T21:06:23.273Z,96308.44
2022-10-18T21:09:01.258Z,96308.72
2022-10-18T21:11:29.998Z,96307.65
2022-10-18T21:13:59.494Z,96305.79
2022-10-18T21:16:26.701Z,96303.63
2022-10-18T21:18:54.363Z,96305.78
2022-10-18T21:21:23.768Z,96302.99
2022-10-18T21:23:52.190Z,96296.23
2022-10-18T21:26:21.682Z,96289.16
2022-10-18T21:28:53.634Z,96286.95
2022-10-18T21:31:22.784Z,96284.38
2022-10-18T21:34:01.372Z,96281.52
2022-10-18T21:36:33.916Z,96277.83
2022-10-18T21:39:02.298Z,96274.84
2022-10-18T21:41:30.738Z,96278.32
2022-10-18T21:43:57.480Z,96272.26
2022-10-18T21:46:26.457Z,96273.35
2022-10-18T21:48:55.820Z,96269.38
2022-10-18T21:51:25.593Z,96270.52
2022-10-18T21:53:54.835Z,96263.71
2022-10-18T21:56:31.099Z,96260.06
2022-10-18T21:58:58.572Z,96257.88
2022-10-18T22:01:34.070Z,96255.48
2022-10-18T22:04:03.204Z,96257.02
2022-10-18T22:06:33.060Z,96255.02
2022-10-18T22:09:02.730Z,96250.77
2022-10-18T22:11:37.459Z,96247.43
2022-10-18T22:14:04.030Z,96243.53
2022-10-18T22:16:30.790Z,96235.89
2022-10-18T22:18:59.937Z,96233.64
2022-10-18T22:21:27.334Z,96229.60
2022-10-18T22:23:58.227Z,96227.22
2022-10-18T22:26:37.131Z,96226.38
2022-10-18T22:29:08.052Z,96223.33
2022-10-18T22:31:38.246Z,96221.53
2022-10-18T22:34:08.019Z,96219.30
2022-10-18T22:36:35.209Z,96217.48
2022-10-18T22:39:02.241Z,96211.48
2022-10-18T22:41:28.804Z,96209.20
2022-10-18T22:43:57.296Z,96208.28
2022-10-18T22:46:27.129Z,96207.19
2022-10-18T22:48:53.825Z,96202.87
2022-10-18T22:51:20.591Z,96201.98
2022-10-18T22:53:47.530Z,96195.23
2022-10-18T22:56:19.674Z,96195.91
2022-10-18T22:58:47.647Z,96193.69
2022-10-18T23:01:17.873Z,96197.58
2022-10-18T23:03:44.958Z,96195.39
2022-10-18T23:06:35.659Z,96195.44
2022-10-18T23:09:09.737Z,96191.81
2022-10-18T23:11:37.452Z,96190.63
2022-10-18T23:14:05.593Z,96191.67
2022-10-18T23:16:32.941Z,96193.41
2022-10-18T23:18:59.699Z,96190.48
2022-10-18T23:21:28.213Z,96188.89
2022-10-18T23:23:56.132Z,96183.38
2022-10-18T23:26:25.654Z,96181.42
2022-10-18T23:28:53.899Z,96181.10
2022-10-18T23:31:32.753Z,96181.67
2022-10-18T23:34:04.747Z,96181.23
2022-10-18T23:36:32.606Z,96176.29
2022-10-18T23:38:59.314Z,96184.17
2022-10-18T23:41:26.487Z,96188.52
2022-10-18T23:43:53.620Z,96191.27
2022-10-18T23:46:20.796Z,96188.27
2022-10-18T23:48:48.136Z,96183.65
2022-10-18T23:51:16.200Z,96185.27
2022-10-18T23:53:43.154Z,96182.77
2022-10-18T23:56:15.329Z,96187.70
2022-10-18T23:58:43.445Z,96185.38
